createdAt,value
2023-05-10T00:02:04.244Z,57.58
2023-05-10T00:04:36.429Z,58.07
2023-05-10T00:07:08.528Z,59.30
2023-05-10T00:09:41.215Z,59.67
2023-05-10T00:12:13.346Z,59.48
2023-05-10T00:14:45.442Z,60.10
2023-05-10T00:17:17.502Z,60.71
2023-05-10T00:19:49.540Z,59.28
2023-05-10T00:22:21.603Z,61.16
2023-05-10T00:24:53.661Z,61.00
2023-05-10T00:27:25.836Z,60.13
2023-05-10T00:29:57.797Z,60.88
2023-05-10T00:32:29.880Z,59.68
2023-05-10T00:35:02.008Z,59.28
2023-05-10T00:37:34.138Z,59.27
2023-05-10T00:40:07.501Z,59.94
2023-05-10T00:42:39.904Z,60.56
2023-05-10T00:45:13.044Z,59.56
2023-05-10T00:47:46.064Z,59.87
2023-05-10T00:50:19.096Z,60.26
2023-05-10T00:52:52.130Z,61.25
2023-05-10T00:55:24.606Z,60.58
2023-05-10T00:57:57.097Z,59.96
2023-05-10T01:00:30.716Z,61.35
2023-05-10T01:03:03.091Z,60.77
2023-05-10T01:05:35.228Z,60.45
2023-05-10T01:08:08.063Z,60.20
2023-05-10T01:10:40.627Z,61.19
2023-05-10T01:13:14.817Z,60.42
2023-05-10T01:15:48.753Z,60.50
2023-05-10T01:18:25.083Z,61.03
2023-05-10T01:21:06.688Z,60.22
2023-05-10T01:23:55.254Z,61.46
2023-05-10T01:26:47.360Z,60.12
2023-05-10T01:29:44.454Z,60.55
2023-05-10T01:32:28.053Z,61.02
2023-05-10T01:35:05.454Z,60.40
2023-05-10T01:37:44.586Z,60.16
2023-05-10T01:40:23.096Z,60.13
2023-05-10T01:43:02.739Z,61.02
2023-05-10T01:45:41.365Z,60.15
2023-05-10T01:48:16.454Z,60.95
2023-05-10T01:50:50.519Z,60.67
2023-05-10T01:53:25.094Z,60.84
2023-05-10T01:55:58.763Z,60.59
2023-05-10T01:58:33.948Z,60.69
2023-05-10T02:01:08.860Z,60.87
2023-05-10T02:03:43.864Z,60.87
2023-05-10T02:06:18.740Z,60.65
2023-05-10T02:08:53.945Z,60.71
2023-05-10T02:11:27.302Z,61.61
2023-05-10T02:14:01.147Z,62.88
2023-05-10T02:16:34.877Z,61.70
2023-05-10T02:19:07.419Z,61.37
2023-05-10T02:21:41.351Z,60.95
2023-05-10T02:24:15.531Z,61.01
2023-05-10T02:26:50.166Z,61.80
2023-05-10T02:29:24.340Z,62.17
2023-05-10T02:31:58.853Z,62.42
2023-05-10T02:34:32.086Z,62.38
2023-05-10T02:37:07.022Z,62.24
2023-05-10T02:39:41.749Z,61.46
2023-05-10T02:42:16.401Z,62.64
2023-05-10T02:44:50.520Z,63.01
2023-05-10T02:47:23.480Z,63.07
2023-05-10T02:49:55.779Z,62.30
2023-05-10T02:52:32.250Z,61.93
2023-05-10T02:55:07.369Z,64.40
2023-05-10T02:57:44.275Z,62.96
2023-05-10T03:00:17.517Z,64.06
2023-05-10T03:02:49.866Z,62.55
2023-05-10T03:05:22.501Z,62.40
2023-05-10T03:07:55.080Z,62.50
2023-05-10T03:10:31.222Z,62.81
2023-05-10T03:13:10.176Z,62.79
2023-05-10T03:15:50.219Z,63.37
2023-05-10T03:18:27.189Z,63.90
2023-05-10T03:21:04.171Z,65.28
2023-05-10T03:23:42.836Z,63.60
2023-05-10T03:26:19.768Z,63.47
2023-05-10T03:28:52.762Z,63.32
2023-05-10T03:31:25.160Z,63.20
2023-05-10T03:33:57.318Z,62.88
2023-05-10T03:36:31.700Z,63.42
2023-05-10T03:39:04.746Z,63.00
2023-05-10T03:41:36.868Z,63.04
2023-05-10T03:44:09.177Z,63.37
2023-05-10T03:46:41.371Z,64.36
2023-05-10T03:49:14.515Z,63.77
2023-05-10T03:51:46.579Z,63.52
2023-05-10T03:54:18.756Z,62.98
2023-05-10T03:56:51.810Z,63.75
2023-05-10T03:59:24.893Z,64.04
2023-05-10T04:01:57.384Z,65.04
2023-05-10T04:04:31.212Z,64.90
2023-05-10T04:07:04.084Z,64.75
2023-05-10T04:09:36.176Z,66.55
2023-05-10T04:12:10.845Z,65.18
2023-05-10T04:14:43.253Z,65.68
2023-05-10T04:17:15.374Z,65.84
2023-05-10T04:19:47.712Z,66.97
2023-05-10T04:22:20.077Z,67.32
2023-05-10T04:24:52.007Z,66.53
2023-05-10T04:27:24.021Z,66.82
2023-05-10T04:29:56.074Z,66.83
2023-05-10T04:32:28.251Z,66.63
2023-05-10T04:35:00.305Z,66.87
2023-05-10T04:37:32.602Z,65.60
2023-05-10T04:40:05.408Z,65.48
2023-05-10T04:42:37.628Z,66.23
2023-05-10T04:45:11.956Z,65.29
2023-05-10T04:47:44.272Z,65.40
2023-05-10T04:50:16.664Z,64.60
2023-05-10T04:52:48.892Z,64.90
2023-05-10T04:55:21.462Z,65.17
2023-05-10T04:57:53.433Z,65.45
2023-05-10T05:00:25.807Z,65.11
2023-05-10T05:02:58.613Z,64.76
2023-05-10T05:05:30.871Z,64.19
2023-05-10T05:08:02.927Z,64.14
2023-05-10T05:10:35.102Z,63.73
2023-05-10T05:13:07.595Z,63.20
2023-05-10T05:15:40.119Z,63.25
2023-05-10T05:18:12.253Z,62.83
2023-05-10T05:20:44.578Z,62.86
2023-05-10T05:23:16.752Z,62.26
2023-05-10T05:25:48.993Z,61.89
2023-05-10T05:28:21.498Z,60.88
2023-05-10T05:30:56.677Z,60.18
2023-05-10T05:33:30.287Z,59.84
2023-05-10T05:36:04.780Z,59.07
2023-05-10T05:38:37.576Z,58.52
2023-05-10T05:41:10.226Z,58.08
2023-05-10T05:43:45.726Z,58.38
2023-05-10T05:46:18.565Z,58.04
2023-05-10T05:48:51.357Z,57.97
2023-05-10T05:51:24.077Z,57.46
2023-05-10T05:53:58.643Z,56.76
2023-05-10T05:56:31.766Z,56.45
2023-05-10T05:59:04.916Z,55.43
2023-05-10T06:01:38.668Z,55.81
2023-05-10T06:04:13.787Z,55.42
2023-05-10T06:06:46.442Z,54.53
2023-05-10T06:09:20.907Z,54.08
2023-05-10T06:11:53.333Z,53.98
2023-05-10T06:14:25.843Z,53.49
2023-05-10T06:16:58.270Z,53.23
2023-05-10T06:19:30.844Z,53.10
2023-05-10T06:22:03.290Z,52.40
2023-05-10T06:24:35.615Z,52.59
2023-05-10T06:27:08.077Z,51.74
2023-05-10T06:29:40.817Z,51.08
2023-05-10T06:32:13.268Z,50.92
2023-05-10T06:34:45.876Z,50.60
2023-05-10T06:37:18.280Z,50.62
2023-05-10T06:39:50.492Z,48.91
2023-05-10T06:42:22.657Z,48.40
2023-05-10T06:44:54.896Z,48.10
2023-05-10T06:47:27.079Z,47.92
2023-05-10T06:49:59.259Z,47.77
2023-05-10T06:52:31.273Z,48.35
2023-05-10T06:55:04.385Z,47.84
2023-05-10T06:57:36.769Z,46.93
2023-05-10T07:00:12.023Z,47.18
2023-05-10T07:02:44.777Z,46.49
2023-05-10T07:05:17.480Z,46.37
2023-05-10T07:07:49.987Z,46.42
2023-05-10T07:10:22.559Z,45.73
2023-05-10T07:12:54.776Z,45.32
2023-05-10T07:15:27.138Z,44.96
2023-05-10T07:17:59.435Z,45.20
2023-05-10T07:20:31.740Z,45.00
2023-05-10T07:23:04.191Z,44.71
2023-05-10T07:25:36.384Z,44.30
2023-05-10T07:28:08.882Z,44.71
2023-05-10T07:30:41.154Z,44.38
2023-05-10T07:33:15.640Z,43.35
2023-05-10T07:35:48.134Z,43.74
2023-05-10T07:38:20.125Z,43.51
2023-05-10T07:40:52.346Z,43.12
2023-05-10T07:43:24.532Z,42.47
2023-05-10T07:45:58.680Z,42.61
2023-05-10T07:48:31.427Z,42.80
2023-05-10T07:51:03.605Z,42.50
2023-05-10T07:53:35.962Z,42.73
2023-05-10T07:56:28.231Z,42.54
2023-05-10T07:59:01.262Z,42.03
2023-05-10T08:01:36.121Z,42.29
2023-05-10T08:04:08.713Z,41.85
2023-05-10T08:06:41.701Z,41.50
2023-05-10T08:09:13.960Z,41.36
2023-05-10T08:11:46.122Z,41.36
2023-05-10T08:14:18.578Z,41.19
2023-05-10T08:16:50.915Z,40.60
2023-05-10T08:19:23.931Z,40.35
2023-05-10T08:21:56.652Z,40.19
2023-05-10T08:24:29.176Z,39.97
2023-05-10T08:27:01.944Z,40.00
2023-05-10T08:29:46.256Z,40.23
2023-05-10T08:32:22.372Z,39.70
2023-05-10T08:34:54.681Z,39.36
2023-05-10T08:37:26.909Z,39.64
2023-05-10T08:39:59.065Z,39.71
2023-05-10T08:42:37.276Z,39.62
2023-05-10T08:45:12.736Z,39.26
2023-05-10T08:47:45.517Z,39.62
2023-05-10T08:50:19.884Z,39.30
2023-05-10T08:52:55.440Z,39.77
2023-05-10T08:55:28.030Z,39.36
2023-05-10T08:58:00.231Z,39.37
2023-05-10T09:00:32.848Z,39.52
2023-05-10T09:03:06.734Z,38.76
2023-05-10T09:05:39.869Z,39.24
2023-05-10T09:08:14.030Z,38.48
2023-05-10T09:10:48.449Z,38.60
2023-05-10T09:13:21.557Z,38.54
2023-05-10T09:15:56.386Z,38.45
2023-05-10T09:18:29.335Z,38.26
2023-05-10T09:21:01.482Z,38.20
2023-05-10T09:23:33.911Z,37.48
2023-05-10T09:26:09.446Z,37.95
2023-05-10T09:28:57.121Z,37.15
2023-05-10T09:31:48.069Z,36.97
2023-05-10T09:34:22.817Z,37.21
2023-05-10T09:36:59.453Z,37.08
2023-05-10T09:39:38.980Z,37.17
2023-05-10T09:42:12.272Z,36.97
2023-05-10T09:44:44.673Z,35.80
2023-05-10T09:47:21.086Z,36.23
2023-05-10T09:49:57.395Z,35.90
2023-05-10T09:52:29.513Z,35.19
2023-05-10T09:55:01.746Z,36.03
2023-05-10T09:57:35.211Z,34.90
2023-05-10T10:00:09.801Z,35.63
2023-05-10T10:02:49.748Z,35.71
2023-05-10T10:05:22.440Z,36.07
2023-05-10T10:07:55.117Z,36.05
2023-05-10T10:10:28.280Z,36.00
2023-05-10T10:13:00.538Z,35.55
2023-05-10T10:15:33.312Z,35.44
2023-05-10T10:18:08.102Z,35.51
2023-05-10T10:20:41.089Z,34.96
2023-05-10T10:23:15.163Z,33.91
2023-05-10T10:25:50.570Z,32.67
2023-05-10T10:28:33.564Z,33.24
2023-05-10T10:31:23.472Z,32.74
2023-05-10T10:34:09.081Z,33.77
2023-05-10T10:36:49.338Z,33.69
2023-05-10T10:39:22.565Z,33.44
2023-05-10T10:41:56.397Z,33.61
2023-05-10T10:44:45.888Z,33.36
2023-05-10T10:47:34.525Z,32.77
2023-05-10T10:50:13.952Z,32.76
2023-05-10T10:52:50.807Z,32.61
2023-05-10T10:55:26.074Z,32.95
2023-05-10T10:58:03.316Z,33.01
2023-05-10T11:00:38.449Z,33.45
2023-05-10T11:03:14.641Z,33.84
2023-05-10T11:05:47.880Z,33.49
2023-05-10T11:08:30.849Z,32.89
2023-05-10T11:11:10.224Z,32.39
2023-05-10T11:13:49.957Z,32.05
2023-05-10T11:16:24.885Z,32.01
2023-05-10T11:19:02.780Z,32.01
2023-05-10T11:21:36.198Z,32.30
2023-05-10T11:24:17.396Z,32.10
2023-05-10T11:26:51.822Z,31.18
2023-05-10T11:29:24.343Z,30.58
2023-05-10T11:31:59.139Z,30.16
2023-05-10T11:34:34.889Z,30.49
2023-05-10T11:37:07.183Z,30.12
2023-05-10T11:39:39.361Z,30.42
2023-05-10T11:42:12.495Z,30.60
2023-05-10T11:44:47.718Z,31.23
2023-05-10T11:47:20.200Z,31.49
2023-05-10T11:49:52.366Z,32.09
2023-05-10T11:52:24.654Z,31.69
2023-05-10T11:54:58.154Z,32.03
2023-05-10T11:57:32.593Z,31.92
2023-05-10T12:00:05.073Z,32.57
2023-05-10T12:02:40.373Z,32.32
2023-05-10T12:05:13.177Z,32.36
2023-05-10T12:07:45.257Z,31.97
2023-05-10T12:10:19.020Z,31.85
2023-05-10T12:12:54.516Z,31.79
2023-05-10T12:15:29.102Z,31.94
2023-05-10T12:18:02.835Z,32.43
2023-05-10T12:20:40.378Z,31.76
2023-05-10T12:23:15.435Z,30.16
2023-05-10T12:25:49.154Z,29.72
2023-05-10T12:28:23.030Z,28.35
2023-05-10T12:30:57.119Z,28.63
2023-05-10T12:33:29.612Z,28.35
2023-05-10T12:36:03.135Z,27.72
2023-05-10T12:38:38.294Z,26.61
2023-05-10T12:41:11.731Z,26.78
2023-05-10T12:43:44.572Z,26.71
2023-05-10T12:46:18.429Z,26.30
2023-05-10T12:49:07.655Z,26.65
2023-05-10T12:51:41.230Z,27.76
2023-05-10T12:54:13.259Z,28.27
2023-05-10T12:56:45.555Z,28.32
2023-05-10T12:59:17.594Z,28.82
2023-05-10T13:01:49.656Z,28.82
2023-05-10T13:04:22.072Z,29.25
2023-05-10T13:06:56.686Z,29.01
2023-05-10T13:09:30.489Z,29.65
2023-05-10T13:12:03.128Z,29.70
2023-05-10T13:14:35.792Z,29.38
2023-05-10T13:17:08.278Z,30.19
2023-05-10T13:19:42.719Z,30.27
2023-05-10T13:22:20.550Z,30.51
2023-05-10T13:24:57.977Z,30.88
2023-05-10T13:27:30.271Z,31.07
2023-05-10T13:30:04.327Z,31.85
2023-05-10T13:32:37.881Z,32.27
2023-05-10T13:35:11.290Z,31.44
2023-05-10T13:37:43.563Z,30.58
2023-05-10T13:40:16.765Z,29.63
2023-05-10T13:42:49.241Z,29.05
2023-05-10T13:45:22.049Z,27.97
2023-05-10T13:47:54.186Z,27.85
2023-05-10T13:50:26.947Z,27.49
2023-05-10T13:52:59.021Z,27.88
2023-05-10T13:55:31.705Z,27.75
2023-05-10T13:58:04.185Z,26.94
2023-05-10T14:00:36.572Z,26.50
2023-05-10T14:03:10.430Z,25.84
2023-05-10T14:05:42.852Z,25.48
2023-05-10T14:08:15.806Z,25.62
2023-05-10T14:10:48.019Z,25.84
2023-05-10T14:13:20.044Z,25.01
2023-05-10T14:15:52.348Z,24.86
2023-05-10T14:18:24.704Z,24.91
2023-05-10T14:20:57.061Z,24.99
2023-05-10T14:23:29.947Z,24.51
2023-05-10T14:26:03.040Z,24.51
2023-05-10T14:28:36.639Z,24.29
2023-05-10T14:31:09.513Z,25.20
2023-05-10T14:33:42.365Z,25.28
2023-05-10T14:36:15.013Z,25.26
2023-05-10T14:38:47.680Z,25.61
2023-05-10T14:41:20.662Z,26.37
2023-05-10T14:43:53.231Z,26.78
2023-05-10T14:46:25.418Z,26.63
2023-05-10T14:48:57.766Z,26.46
2023-05-10T14:51:30.195Z,25.93
2023-05-10T14:54:03.643Z,25.46
2023-05-10T14:56:36.008Z,25.45
2023-05-10T14:59:08.177Z,25.28
2023-05-10T15:01:43.380Z,25.05
2023-05-10T15:04:17.542Z,25.39
2023-05-10T15:06:50.520Z,25.27
2023-05-10T15:09:22.939Z,26.11
2023-05-10T15:11:55.508Z,26.25
2023-05-10T15:14:28.833Z,25.96
2023-05-10T15:17:02.376Z,26.23
2023-05-10T15:19:34.882Z,25.97
2023-05-10T15:22:08.040Z,26.01
2023-05-10T15:24:40.184Z,25.67
2023-05-10T15:27:16.652Z,25.29
2023-05-10T15:29:49.471Z,24.95
2023-05-10T15:32:22.288Z,25.30
2023-05-10T15:34:54.938Z,25.13
2023-05-10T15:37:27.430Z,25.09
2023-05-10T15:40:04.963Z,25.28
2023-05-10T15:42:37.398Z,25.24
2023-05-10T15:45:11.879Z,25.60
2023-05-10T15:47:45.351Z,25.56
2023-05-10T15:50:18.187Z,26.02
2023-05-10T15:52:50.332Z,26.13
2023-05-10T15:55:22.630Z,26.45
2023-05-10T15:57:54.897Z,26.78
2023-05-10T16:00:27.227Z,27.04
2023-05-10T16:02:59.563Z,27.78
2023-05-10T16:05:35.149Z,28.23
2023-05-10T16:08:05.796Z,28.56
2023-05-10T16:10:38.192Z,28.78
2023-05-10T16:13:10.404Z,29.17
2023-05-10T16:15:43.286Z,29.53
2023-05-10T16:18:18.015Z,29.87
2023-05-10T16:20:50.879Z,30.31
2023-05-10T16:23:23.344Z,30.69
2023-05-10T16:25:56.334Z,31.27
2023-05-10T16:28:28.444Z,31.74
2023-05-10T16:31:00.703Z,32.37
2023-05-10T16:33:33.048Z,32.47
2023-05-10T16:36:06.576Z,32.96
2023-05-10T16:38:38.865Z,33.03
2023-05-10T16:41:11.063Z,33.53
2023-05-10T16:43:43.182Z,33.69
2023-05-10T16:46:15.645Z,33.99
2023-05-10T16:48:47.894Z,34.01
2023-05-10T16:51:19.976Z,34.16
2023-05-10T16:53:52.064Z,34.16
2023-05-10T16:56:24.586Z,34.40
2023-05-10T16:58:56.928Z,34.53
2023-05-10T17:01:29.181Z,34.98
2023-05-10T17:04:01.747Z,35.28
2023-05-10T17:06:34.232Z,35.19
2023-05-10T17:09:07.535Z,35.62
2023-05-10T17:11:39.934Z,36.24
2023-05-10T17:14:12.598Z,36.07
2023-05-10T17:16:44.841Z,36.65
2023-05-10T17:19:17.076Z,36.18
2023-05-10T17:21:49.755Z,36.37
2023-05-10T17:24:22.188Z,36.35
2023-05-10T17:26:55.113Z,36.74
2023-05-10T17:29:27.425Z,36.96
2023-05-10T17:31:59.974Z,37.21
2023-05-10T17:34:32.168Z,37.52
2023-05-10T17:37:04.421Z,37.87
2023-05-10T17:39:39.385Z,38.03
2023-05-10T17:42:12.033Z,38.16
2023-05-10T17:44:44.572Z,38.93
2023-05-10T17:47:17.047Z,38.50
2023-05-10T17:49:50.787Z,38.72
2023-05-10T17:52:23.293Z,38.42
2023-05-10T17:54:55.886Z,39.37
2023-05-10T17:57:28.434Z,38.95
2023-05-10T18:00:02.351Z,39.67
2023-05-10T18:02:37.927Z,39.10
2023-05-10T18:05:12.292Z,39.48
2023-05-10T18:07:45.321Z,39.78
2023-05-10T18:10:18.090Z,40.20
2023-05-10T18:12:52.726Z,40.56
2023-05-10T18:15:25.460Z,41.76
2023-05-10T18:17:57.944Z,42.38
2023-05-10T18:20:30.443Z,42.67
2023-05-10T18:23:02.866Z,43.02
2023-05-10T18:25:35.521Z,43.04
2023-05-10T18:28:08.811Z,43.08
2023-05-10T18:30:44.277Z,43.43
2023-05-10T18:33:16.939Z,43.69
2023-05-10T18:35:53.171Z,44.75
2023-05-10T18:38:25.865Z,44.34
2023-05-10T18:40:58.825Z,44.52
2023-05-10T18:43:31.356Z,47.36
2023-05-10T18:46:04.269Z,48.12
2023-05-10T18:48:37.289Z,47.87
2023-05-10T18:51:10.557Z,47.28
2023-05-10T18:53:43.190Z,48.34
2023-05-10T18:56:17.075Z,47.72
2023-05-10T18:58:51.595Z,47.64
2023-05-10T19:01:24.226Z,48.05
2023-05-10T19:03:56.879Z,49.08
2023-05-10T19:06:30.349Z,49.83
2023-05-10T19:09:03.596Z,50.20
2023-05-10T19:11:36.083Z,49.69
2023-05-10T19:14:09.545Z,49.18
2023-05-10T19:16:43.840Z,50.13
2023-05-10T19:19:17.662Z,50.41
2023-05-10T19:21:50.595Z,49.51
2023-05-10T19:24:26.170Z,49.83
2023-05-10T19:27:00.857Z,50.73
2023-05-10T19:29:34.225Z,51.32
2023-05-10T19:32:11.940Z,50.55
2023-05-10T19:34:44.773Z,50.21
2023-05-10T19:37:19.028Z,51.06
2023-05-10T19:39:54.569Z,52.68
2023-05-10T19:42:27.955Z,52.71
2023-05-10T19:45:02.169Z,52.06
2023-05-10T19:47:38.394Z,51.06
2023-05-10T19:50:16.646Z,52.22
2023-05-10T19:52:49.644Z,53.39
2023-05-10T19:55:30.861Z,52.94
2023-05-10T19:58:05.451Z,52.79
2023-05-10T20:00:38.278Z,52.11
2023-05-10T20:03:11.387Z,52.24
2023-05-10T20:05:45.050Z,52.27
2023-05-10T20:08:18.533Z,52.73
2023-05-10T20:10:51.182Z,52.45
2023-05-10T20:13:23.988Z,52.34
2023-05-10T20:16:00.074Z,52.03
2023-05-10T20:18:32.598Z,51.94
2023-05-10T20:21:05.539Z,51.57
2023-05-10T20:23:38.350Z,50.64
2023-05-10T20:26:10.897Z,50.51
2023-05-10T20:28:43.524Z,50.20
2023-05-10T20:31:16.009Z,49.84
2023-05-10T20:33:48.464Z,49.40
2023-05-10T20:36:21.356Z,49.12
2023-05-10T20:38:53.601Z,48.83
2023-05-10T20:41:26.184Z,48.15
2023-05-10T20:43:58.748Z,48.03
2023-05-10T20:46:31.683Z,47.68
2023-05-10T20:49:04.508Z,47.54
2023-05-10T20:51:36.856Z,47.18
2023-05-10T20:54:09.292Z,46.67
2023-05-10T20:56:41.724Z,46.54
2023-05-10T20:59:14.216Z,46.46
2023-05-10T21:01:46.848Z,45.99
2023-05-10T21:04:19.182Z,45.95
2023-05-10T21:06:51.820Z,45.98
2023-05-10T21:09:24.199Z,45.85
2023-05-10T21:11:56.707Z,45.78
2023-05-10T21:14:28.833Z,45.76
2023-05-10T21:17:01.417Z,45.94
2023-05-10T21:19:33.886Z,46.18
2023-05-10T21:22:06.620Z,46.51
2023-05-10T21:24:39.300Z,46.86
2023-05-10T21:27:11.463Z,47.07
2023-05-10T21:29:43.592Z,47.56
2023-05-10T21:32:16.179Z,47.36
2023-05-10T21:34:48.468Z,47.61
2023-05-10T21:37:20.598Z,47.63
2023-05-10T21:39:52.998Z,47.52
2023-05-10T21:42:25.091Z,47.52
2023-05-10T21:44:57.365Z,47.30
2023-05-10T21:47:29.559Z,47.20
2023-05-10T21:50:01.610Z,47.28
2023-05-10T21:52:33.831Z,47.35
2023-05-10T21:55:08.650Z,47.25
2023-05-10T21:57:41.506Z,47.33
2023-05-10T22:00:16.469Z,47.37
2023-05-10T22:02:49.121Z,47.87
2023-05-10T22:05:21.332Z,47.82
2023-05-10T22:07:53.605Z,47.87
2023-05-10T22:10:25.818Z,48.03
2023-05-10T22:12:59.822Z,48.66
2023-05-10T22:15:34.187Z,48.46
2023-05-10T22:18:08.477Z,48.60
2023-05-10T22:20:40.681Z,49.12
2023-05-10T22:23:13.017Z,49.29
2023-05-10T22:25:45.224Z,49.55
2023-05-10T22:28:17.333Z,49.44
2023-05-10T22:30:49.430Z,50.03
2023-05-10T22:33:21.530Z,49.54
2023-05-10T22:35:53.641Z,49.58
2023-05-10T22:38:25.680Z,49.80
2023-05-10T22:40:57.824Z,49.89
2023-05-10T22:43:29.887Z,49.81
2023-05-10T22:46:01.901Z,50.98
2023-05-10T22:48:35.802Z,50.92
2023-05-10T22:51:07.960Z,50.86
2023-05-10T22:53:40.123Z,50.56
2023-05-10T22:56:12.477Z,50.89
2023-05-10T22:58:44.653Z,50.94
2023-05-10T23:01:17.301Z,51.89
2023-05-10T23:03:49.750Z,51.42
2023-05-10T23:06:21.777Z,51.67
2023-05-10T23:08:53.937Z,51.26
2023-05-10T23:11:26.003Z,51.05
2023-05-10T23:13:58.061Z,51.57
2023-05-10T23:16:30.761Z,50.89
2023-05-10T23:19:02.996Z,51.17
2023-05-10T23:21:35.389Z,51.01
2023-05-10T23:24:09.375Z,51.35
2023-05-10T23:26:43.666Z,50.96
2023-05-10T23:29:15.684Z,51.47
2023-05-10T23:31:49.376Z,51.51
2023-05-10T23:34:21.670Z,51.40
2023-05-10T23:36:53.731Z,51.52
2023-05-10T23:39:25.901Z,51.71
2023-05-10T23:41:58.064Z,52.59
2023-05-10T23:44:30.176Z,52.52
2023-05-10T23:47:02.313Z,52.26
2023-05-10T23:49:34.475Z,52.80
2023-05-10T23:52:06.553Z,53.31
2023-05-10T23:54:38.810Z,52.69
2023-05-10T23:57:10.895Z,52.94
2023-05-10T23:59:42.843Z,52.62
